Time;durP1;ratioP1;P1;durP2;ratioP2;P2;SDS_P1;SDS_P2;PMS_P1;PMS_P2;Temp;Humidity;BMP_temperature;BMP_pressure;BME280_temperature;BME280_humidity;BME280_pressure;Samples;Min_cycle;Max_cycle;Signal;HPM_P1;HPM_P2
2021/11/15 00:00:58;;;;;;;;;40.75;29.75;;;;;7.64;86.65;101453.31;4995547;28;45310;-69
2021/11/15 00:03:26;;;;;;;;;47.50;36.00;;;;;7.65;86.46;101464.66;4996624;28;45497;-68
2021/11/15 00:05:51;;;;;;;;;48.25;37.50;;;;;7.62;86.26;101462.94;5010604;28;45400;-67
2021/11/15 00:08:17;;;;;;;;;43.00;35.00;;;;;7.57;86.71;101454.28;4996149;28;46192;-67
2021/11/15 00:10:43;;;;;;;;;44.75;35.75;;;;;7.59;86.93;101457.75;4995266;28;45382;-68
2021/11/15 00:13:09;;;;;;;;;41.25;35.00;;;;;7.56;87.09;101463.88;5005119;27;45354;-68
2021/11/15 00:15:34;;;;;;;;;43.50;33.50;;;;;7.54;87.09;101457.81;4999119;28;45586;-68
2021/11/15 00:18:00;;;;;;;;;41.00;34.75;;;;;7.49;86.96;101446.53;4998425;27;47628;-69
2021/11/15 00:20:27;;;;;;;;;42.75;36.50;;;;;7.49;86.59;101449.16;5038554;27;45535;-74
2021/11/15 00:22:52;;;;;;;;;47.50;38.00;;;;;7.47;86.68;101457.94;5044988;27;45344;-75
2021/11/15 00:25:18;;;;;;;;;46.00;35.00;;;;;7.41;87.14;101451.84;5048302;27;45557;-73
2021/11/15 00:27:44;;;;;;;;;44.00;34.75;;;;;7.43;86.73;101459.69;5014609;28;46198;-74
2021/11/15 00:30:15;;;;;;;;;41.50;34.50;;;;;7.42;87.22;101457.97;5014554;28;45797;-74
2021/11/15 00:32:41;;;;;;;;;44.25;37.25;;;;;7.33;86.73;101448.47;5043024;27;45485;-74
2021/11/15 00:35:07;;;;;;;;;47.00;37.75;;;;;7.38;86.71;101459.75;5119918;27;45345;-72
2021/11/15 00:37:34;;;;;;;;;48.25;37.75;;;;;7.34;87.04;101462.44;5042297;27;46058;-75
2021/11/15 00:40:00;;;;;;;;;43.25;34.75;;;;;7.32;86.65;101459.81;5014377;28;45312;-73
2021/11/15 00:42:25;;;;;;;;;51.00;37.75;;;;;7.29;86.98;101463.38;5013821;27;45305;-67
2021/11/15 00:44:50;;;;;;;;;45.00;35.75;;;;;7.26;87.19;101460.78;5014020;28;45531;-68
2021/11/15 00:47:16;;;;;;;;;43.50;34.75;;;;;7.25;87.58;101456.44;5014279;28;46286;-72
2021/11/15 00:49:41;;;;;;;;;53.50;42.00;;;;;7.24;87.15;101454.69;5015032;28;45315;-73
2021/11/15 00:52:07;;;;;;;;;42.00;37.50;;;;;7.22;87.30;101460.81;5018417;28;45260;-74
2021/11/15 00:54:34;;;;;;;;;41.75;35.25;;;;;7.19;87.47;101459.13;5016453;28;45373;-74
2021/11/15 00:57:00;;;;;;;;;41.75;34.75;;;;;7.15;87.79;101458.28;5014158;27;46568;-73
2021/11/15 00:59:27;;;;;;;;;48.75;38.25;;;;;7.14;87.04;101464.41;5014038;28;45435;-71
2021/11/15 01:01:53;;;;;;;;;49.25;38.75;;;;;7.13;87.47;101462.66;5014350;28;45377;-70
2021/11/15 01:04:18;;;;;;;;;52.50;40.50;;;;;7.11;87.21;101455.75;5014425;28;45315;-70
2021/11/15 01:06:43;;;;;;;;;40.75;35.50;;;;;7.07;87.77;101459.28;5014056;28;45379;-72
2021/11/15 01:09:09;;;;;;;;;42.25;35.25;;;;;7.04;87.09;101454.94;5014342;28;45312;-67
2021/11/15 01:11:34;;;;;;;;;47.00;37.75;;;;;6.97;86.63;101453.25;5018327;28;45526;-69
2021/11/15 01:14:01;;;;;;;;;37.75;34.00;;;;;7.06;87.56;101474.09;5022117;28;45453;-72
2021/11/15 01:16:27;;;;;;;;;46.00;36.25;;;;;7.00;86.96;101454.13;5039991;28;46193;-69
2021/11/15 01:18:52;;;;;;;;;39.00;33.75;;;;;6.97;88.05;101451.53;5044636;28;45743;-69
2021/11/15 01:21:18;;;;;;;;;43.75;35.75;;;;;7.04;86.87;101464.53;5040004;28;45358;-68
2021/11/15 01:23:44;;;;;;;;;46.00;36.25;;;;;6.97;86.74;101454.16;5033072;28;45566;-69
2021/11/15 01:26:10;;;;;;;;;44.25;35.25;;;;;7.01;86.95;101461.06;5032137;28;45538;-75
2021/11/15 01:28:37;;;;;;;;;46.75;35.50;;;;;6.91;86.95;101446.38;5032749;28;45479;-73
2021/11/15 01:31:03;;;;;;;;;46.25;35.50;;;;;7.04;87.27;101465.38;5034445;28;45512;-74
2021/11/15 01:33:28;;;;;;;;;48.00;36.75;;;;;7.06;87.10;101463.63;5032940;28;45276;-72
2021/11/15 01:35:53;;;;;;;;;47.00;36.25;;;;;7.07;86.49;101462.75;5034444;28;46701;-72
2021/11/15 01:38:19;;;;;;;;;42.00;34.75;;;;;7.15;86.68;101468.75;5034252;28;45437;-76
2021/11/15 01:40:44;;;;;;;;;47.50;36.50;;;;;7.18;86.37;101475.72;5033190;28;45704;-68
2021/11/15 01:43:10;;;;;;;;;43.75;32.00;;;;;7.23;86.16;101473.03;5032972;27;45227;-72
2021/11/15 01:45:38;;;;;;;;;42.25;33.75;;;;;7.24;86.31;101475.63;5032501;28;46459;-73
2021/11/15 01:48:05;;;;;;;;;48.25;38.25;;;;;7.29;85.78;101480.81;5032868;28;45254;-69
2021/11/15 01:50:34;;;;;;;;;44.25;35.50;;;;;7.33;85.31;101477.25;5033184;28;45342;-73
2021/11/15 01:53:01;;;;;;;;;50.50;38.25;;;;;7.36;86.02;101477.22;5034006;27;45229;-72
2021/11/15 01:55:28;;;;;;;;;45.75;36.25;;;;;7.37;85.27;101476.34;5032401;28;46185;-68
2021/11/15 01:57:55;;;;;;;;;14.25;8.75;;;;;7.35;84.65;101472.88;5033100;28;45325;-74
2021/11/15 02:00:28;;;;;;;;;48.50;37.50;;;;;7.37;85.30;101468.47;5032966;28;45551;-65
2021/11/15 02:02:53;;;;;;;;;41.00;35.25;;;;;7.36;84.55;101468.53;5031584;28;45271;-66
2021/11/15 02:05:19;;;;;;;;;49.75;37.50;;;;;7.34;84.98;101467.66;5033490;28;46236;-69
2021/11/15 02:07:44;;;;;;;;;47.75;37.50;;;;;7.35;84.31;101470.25;5032594;28;45225;-71
2021/11/15 02:10:11;;;;;;;;;44.25;33.75;;;;;7.36;85.24;101474.59;5032708;28;45517;-69
2021/11/15 02:12:37;;;;;;;;;42.50;34.75;;;;;7.34;85.08;101470.28;5031299;28;45368;-72
2021/11/15 02:15:06;;;;;;;;;47.00;37.00;;;;;7.31;85.19;101473.78;5033515;28;45403;-70
2021/11/15 02:17:32;;;;;;;;;44.75;36.25;;;;;7.29;84.35;101475.56;5036001;27;45221;-71
2021/11/15 02:20:03;;;;;;;;;50.25;40.50;;;;;7.24;85.14;101470.41;5073930;28;45335;-74
2021/11/15 02:22:28;;;;;;;;;44.25;36.75;;;;;7.19;84.60;101471.31;5039769;28;45414;-73
2021/11/15 02:24:54;;;;;;;;;42.00;35.00;;;;;7.13;84.82;101469.66;5039552;28;45289;-71
2021/11/15 02:27:19;;;;;;;;;49.25;36.00;;;;;7.12;84.96;101475.78;5038589;28;45450;-75
2021/11/15 02:29:44;;;;;;;;;49.00;37.75;;;;;7.04;84.37;101460.16;5045673;28;45316;-71
2021/11/15 02:32:10;;;;;;;;;43.50;35.00;;;;;7.03;84.60;101460.19;5044042;28;45297;-71
2021/11/15 02:34:36;;;;;;;;;44.00;38.00;;;;;7.04;84.45;101465.38;5035535;28;45348;-69
2021/11/15 02:37:01;;;;;;;;;50.00;38.00;;;;;6.99;84.53;101461.97;5034067;28;45505;-70
2021/11/15 02:39:26;;;;;;;;;45.00;35.00;;;;;7.00;85.10;101463.69;5035955;28;45287;-70
2021/11/15 02:41:52;;;;;;;;;46.75;35.50;;;;;6.99;85.50;101461.97;5034573;28;45541;-72
2021/11/15 02:44:18;;;;;;;;;43.25;36.00;;;;;6.99;84.74;101457.59;5035051;28;46125;-72
2021/11/15 02:46:44;;;;;;;;;49.00;39.00;;;;;7.03;85.60;101474.13;5035249;28;45269;-71
2021/11/15 02:49:09;;;;;;;;;52.25;40.50;;;;;7.06;85.34;101468.00;5035265;28;45281;-74
2021/11/15 02:51:35;;;;;;;;;51.75;38.25;;;;;7.06;85.04;101458.38;5035164;28;45618;-73
2021/11/15 02:54:00;;;;;;;;;51.00;39.25;;;;;7.13;84.56;101472.28;5034951;28;45421;-72
2021/11/15 02:56:26;;;;;;;;;41.50;34.75;;;;;7.09;84.83;101458.34;5034383;28;45411;-71
2021/11/15 02:58:51;;;;;;;;;48.25;37.50;;;;;7.15;84.54;101460.91;5043971;28;45357;-69
2021/11/15 03:01:19;;;;;;;;;47.50;37.25;;;;;7.13;84.46;101460.06;5038233;28;45332;-65
2021/11/15 03:03:45;;;;;;;;;53.75;39.50;;;;;7.13;84.63;101469.66;5035279;28;46519;-74
2021/11/15 03:06:11;;;;;;;;;54.00;39.50;;;;;7.11;84.47;101474.91;5035414;28;45407;-66
2021/11/15 03:08:38;;;;;;;;;48.25;38.75;;;;;7.13;84.59;101467.91;5033713;28;45425;-69
2021/11/15 03:11:05;;;;;;;;;49.25;36.50;;;;;7.15;83.85;101465.28;5034800;28;45198;-69
2021/11/15 03:13:34;;;;;;;;;45.00;35.00;;;;;7.12;85.01;101465.31;5034627;28;45462;-73
2021/11/15 03:16:01;;;;;;;;;51.00;39.75;;;;;7.11;84.13;101468.81;5066920;28;45807;-74
2021/11/15 03:18:30;;;;;;;;;50.75;40.00;;;;;7.01;83.95;101454.97;5037444;28;45439;-74
2021/11/15 03:21:23;;;;;;;;;52.25;40.00;;;;;7.10;83.76;101469.69;5036956;28;45609;-70
2021/11/15 03:23:51;;;;;;;;;43.50;32.50;;;;;7.07;83.90;101469.75;5038450;27;46213;-74
2021/11/15 03:26:17;;;;;;;;;51.00;39.50;;;;;7.06;84.33;101478.47;5035186;28;45385;-74
2021/11/15 03:28:45;;;;;;;;;48.25;35.50;;;;;7.05;84.49;101472.34;5034888;28;45516;-73
2021/11/15 03:31:27;;;;;;;;;48.50;37.25;;;;;7.04;83.83;101477.63;5039422;28;45192;-74
2021/11/15 03:34:00;;;;;;;;;57.75;41.75;;;;;7.00;84.14;101476.78;5041349;28;46114;-76
2021/11/15 03:36:26;;;;;;;;;53.50;41.00;;;;;6.96;84.54;101480.31;5038264;28;45433;-76
2021/11/15 03:38:52;;;;;;;;;51.00;40.25;;;;;6.94;84.25;101475.09;5037634;28;45363;-74
2021/11/15 03:41:18;;;;;;;;;45.00;37.00;;;;;6.96;84.48;101477.69;5074586;28;45525;-76
2021/11/15 03:43:44;;;;;;;;;51.25;40.00;;;;;6.98;84.59;101475.91;5041136;28;46045;-74
2021/11/15 03:46:10;;;;;;;;;52.25;41.50;;;;;6.97;83.86;101467.22;5043834;28;45376;-71
2021/11/15 03:48:36;;;;;;;;;46.00;36.00;;;;;6.93;83.99;101465.53;5042610;28;44766;-73
2021/11/15 03:51:01;;;;;;;;;48.25;38.75;;;;;6.94;83.59;101474.22;5040255;28;45145;-74
2021/11/15 03:53:31;;;;;;;;;52.25;39.00;;;;;6.91;83.69;101469.91;5040329;28;45184;-72
2021/11/15 03:55:57;;;;;;;;;53.50;39.25;;;;;6.86;83.58;101466.44;5035608;28;45372;-69
2021/11/15 03:58:23;;;;;;;;;53.00;39.75;;;;;6.81;84.39;101463.00;5034619;28;45349;-73
2021/11/15 04:00:50;;;;;;;;;53.25;42.75;;;;;6.87;84.23;101473.41;5034714;28;45373;-73
2021/11/15 04:03:20;;;;;;;;;51.75;40.25;;;;;6.89;83.14;101469.03;5032805;27;46596;-68
2021/11/15 04:05:55;;;;;;;;;52.00;39.25;;;;;6.87;83.73;101476.91;5034042;28;45390;-73
2021/11/15 04:08:21;;;;;;;;;50.00;38.00;;;;;6.89;83.59;101473.41;5034063;28;45385;-67
2021/11/15 04:10:46;;;;;;;;;46.75;39.75;;;;;6.88;83.50;101472.53;5034408;28;45657;-72
2021/11/15 04:13:23;;;;;;;;;49.00;39.00;;;;;6.81;83.77;101456.03;5033674;28;45346;-68
2021/11/15 04:15:53;;;;;;;;;45.25;35.50;;;;;6.87;83.74;101462.94;5033780;27;45389;-69
2021/11/15 04:18:21;;;;;;;;;55.50;44.00;;;;;6.82;84.25;101465.63;5034337;28;45424;-65
2021/11/15 04:20:47;;;;;;;;;51.00;40.75;;;;;6.85;83.69;101481.28;5034288;28;45439;-70
2021/11/15 04:23:13;;;;;;;;;45.00;35.50;;;;;6.83;83.97;101474.31;5033935;28;46358;-71
2021/11/15 04:25:39;;;;;;;;;47.50;41.50;;;;;6.81;84.52;101468.25;5033908;28;45322;-68
2021/11/15 04:28:04;;;;;;;;;52.50;42.50;;;;;6.84;84.02;101471.72;5033976;28;45312;-74
2021/11/15 04:30:33;;;;;;;;;53.50;41.75;;;;;6.83;83.49;101466.47;5034665;28;45545;-69
2021/11/15 04:33:00;;;;;;;;;51.75;38.00;;;;;6.81;84.52;101463.91;5034580;28;46346;-67
2021/11/15 04:35:26;;;;;;;;;52.00;40.75;;;;;6.86;84.21;101466.44;5034492;28;45404;-70
2021/11/15 04:37:51;;;;;;;;;53.75;41.50;;;;;6.81;83.60;101458.66;5034526;28;45328;-67
2021/11/15 04:40:16;;;;;;;;;53.50;40.75;;;;;6.79;83.93;101463.03;5034513;28;45302;-72
2021/11/15 04:42:43;;;;;;;;;49.50;40.25;;;;;6.66;84.80;101454.44;5034925;28;46480;-73
2021/11/15 04:45:09;;;;;;;;;51.75;41.25;;;;;6.72;84.70;101464.00;5032643;28;45365;-67
2021/11/15 04:47:35;;;;;;;;;54.00;40.25;;;;;6.63;84.76;101438.78;5034148;28;45293;-65
2021/11/15 04:50:02;;;;;;;;;52.50;40.75;;;;;6.69;84.73;101456.19;5034584;28;45471;-70
2021/11/15 04:52:27;;;;;;;;;47.25;38.50;;;;;6.69;84.27;101453.56;5034903;28;46693;-66
2021/11/15 04:54:53;;;;;;;;;54.25;41.75;;;;;6.71;85.02;101457.03;5037992;28;45237;-72
2021/11/15 04:57:18;;;;;;;;;53.00;41.00;;;;;6.70;84.44;101439.59;5035146;28;45311;-69
2021/11/15 04:59:46;;;;;;;;;54.50;39.00;;;;;6.73;85.28;101440.44;5035176;28;45317;-71
2021/11/15 05:02:11;;;;;;;;;49.50;41.25;;;;;6.57;85.08;101418.81;5034168;28;46322;-65
2021/11/15 05:04:36;;;;;;;;;49.75;37.25;;;;;6.68;84.80;101447.44;5034538;28;45470;-72
2021/11/15 05:07:02;;;;;;;;;48.25;39.75;;;;;6.64;84.63;101450.97;5036684;28;45378;-69
2021/11/15 05:09:27;;;;;;;;;50.00;40.25;;;;;6.60;84.78;101451.03;5036117;28;45304;-66
2021/11/15 05:11:53;;;;;;;;;53.75;41.50;;;;;6.60;84.99;101459.72;5033310;28;46583;-67
2021/11/15 05:14:18;;;;;;;;;52.75;40.75;;;;;6.59;85.31;101450.16;5031687;28;45433;-74
2021/11/15 05:16:43;;;;;;;;;51.75;41.50;;;;;6.65;85.27;101451.84;5033495;28;45393;-63
2021/11/15 05:19:10;;;;;;;;;50.00;37.00;;;;;6.65;84.30;101446.63;5033227;28;45377;-68
2021/11/15 05:21:36;;;;;;;;;55.50;39.00;;;;;6.63;84.99;101451.00;5032732;28;46167;-71
2021/11/15 05:24:01;;;;;;;;;49.75;38.50;;;;;6.62;84.72;101457.97;5033399;28;45415;-71
2021/11/15 05:26:29;;;;;;;;;49.75;35.25;;;;;6.61;85.23;101460.63;5033188;28;45297;-73
2021/11/15 05:28:54;;;;;;;;;47.50;36.00;;;;;6.57;84.92;101451.91;5034180;28;45292;-67
2021/11/15 05:31:19;;;;;;;;;49.00;35.50;;;;;6.57;85.44;101457.16;5034999;28;45222;-67
2021/11/15 05:33:45;;;;;;;;;53.75;39.75;;;;;6.56;85.36;101451.06;5037301;28;45275;-69
2021/11/15 05:36:10;;;;;;;;;43.00;35.00;;;;;6.53;85.72;101452.81;5032815;28;45374;-71
2021/11/15 05:38:36;;;;;;;;;46.25;38.75;;;;;6.52;85.20;101465.06;5033332;27;45428;-71
2021/11/15 05:41:02;;;;;;;;;49.25;40.00;;;;;6.52;85.25;101458.94;5032905;28;46343;-68
2021/11/15 05:43:27;;;;;;;;;44.25;38.00;;;;;6.50;85.42;101464.19;5032964;28;45313;-69
2021/11/15 05:45:53;;;;;;;;;49.50;35.75;;;;;6.47;85.19;101466.84;5033150;28;45421;-73
2021/11/15 05:48:19;;;;;;;;;45.00;32.25;;;;;6.34;84.71;101460.84;5034327;28;45561;-76
2021/11/15 05:50:46;;;;;;;;;49.50;35.00;;;;;6.40;85.57;101480.84;5034465;27;45423;-75
2021/11/15 05:53:14;;;;;;;;;48.50;38.50;;;;;6.32;86.13;101464.31;5067833;28;45628;-73
2021/11/15 05:55:40;;;;;;;;;52.00;39.00;;;;;6.31;86.09;101470.44;5069026;28;45331;-73
2021/11/15 05:58:05;;;;;;;;;43.00;38.25;;;;;6.31;85.88;101473.94;5038012;28;45602;-64
2021/11/15 06:00:31;;;;;;;;;41.25;33.00;;;;;6.27;86.21;101475.69;5037598;27;45367;-65
2021/11/15 06:02:57;;;;;;;;;49.25;36.25;;;;;6.31;86.76;101480.88;5035594;28;45430;-65
2021/11/15 06:05:23;;;;;;;;;41.00;35.25;;;;;6.30;86.68;101466.97;5035972;28;45358;-66
2021/11/15 06:07:50;;;;;;;;;49.00;38.75;;;;;6.39;86.30;101477.34;5036014;28;45387;-68
2021/11/15 06:10:15;;;;;;;;;57.75;41.25;;;;;6.41;86.60;101472.13;5035484;28;45422;-66
2021/11/15 06:12:41;;;;;;;;;53.00;38.25;;;;;6.39;86.19;101479.09;5036253;28;45431;-68
2021/11/15 06:15:09;;;;;;;;;49.75;38.50;;;;;6.37;86.50;101480.88;5035725;28;45257;-64
2021/11/15 06:17:35;;;;;;;;;46.25;38.75;;;;;6.37;86.54;101486.09;5036491;28;45229;-65
2021/11/15 06:20:00;;;;;;;;;17.00;16.00;;;;;6.33;86.52;101485.22;5039490;28;45349;-70
2021/11/15 06:22:26;;;;;;;;;50.00;41.50;;;;;6.34;86.90;101484.34;5036073;28;45309;-70
2021/11/15 06:24:52;;;;;;;;;40.00;32.25;;;;;6.36;86.52;101486.94;5036048;28;45447;-72
2021/11/15 06:27:18;;;;;;;;;46.75;37.75;;;;;6.26;86.62;101479.19;5035768;28;45542;-65
2021/11/15 06:29:45;;;;;;;;;43.50;37.25;;;;;6.33;85.89;101490.47;5034046;28;46139;-66
2021/11/15 06:32:12;;;;;;;;;50.25;39.25;;;;;6.35;86.43;101490.44;5035667;28;45340;-64
2021/11/15 06:34:37;;;;;;;;;51.50;38.75;;;;;6.34;86.00;101484.34;5036194;28;45305;-73
2021/11/15 06:37:03;;;;;;;;;54.00;39.75;;;;;6.39;86.70;101489.56;5036481;28;45422;-66
2021/11/15 06:39:29;;;;;;;;;44.75;36.25;;;;;6.39;86.83;101489.56;5034009;28;47469;-67
2021/11/15 06:41:56;;;;;;;;;50.50;38.00;;;;;6.39;86.46;101492.16;5034050;28;45323;-66
2021/11/15 06:44:22;;;;;;;;;55.75;42.00;;;;;6.38;86.21;101485.22;5035653;28;45480;-70
2021/11/15 06:46:48;;;;;;;;;48.00;37.25;;;;;6.42;86.37;101500.00;5036760;28;45300;-71
2021/11/15 06:49:14;;;;;;;;;41.50;34.75;;;;;6.39;86.40;101503.47;5036406;28;45452;-67
2021/11/15 06:51:40;;;;;;;;;49.25;37.75;;;;;6.22;86.07;101477.47;5035929;28;45385;-75
2021/11/15 06:54:06;;;;;;;;;49.00;38.50;;;;;6.43;86.12;101509.56;5037035;28;45371;-74
2021/11/15 06:56:32;;;;;;;;;38.25;34.00;;;;;6.43;86.17;101505.19;5036617;28;45287;-67
2021/11/15 06:58:58;;;;;;;;;46.50;37.00;;;;;6.25;85.38;101477.44;5035710;28;46152;-68
2021/11/15 07:01:23;;;;;;;;;43.00;34.25;;;;;6.43;86.04;101514.78;5033747;28;45418;-74
2021/11/15 07:03:48;;;;;;;;;43.25;34.00;;;;;6.43;85.81;101515.63;5035717;28;45442;-73
2021/11/15 07:06:15;;;;;;;;;45.00;35.00;;;;;6.45;85.78;101522.59;5037435;28;45229;-69
2021/11/15 07:08:40;;;;;;;;;39.25;34.75;;;;;6.40;85.40;101513.06;5037456;28;45351;-74
2021/11/15 07:11:06;;;;;;;;;52.00;38.25;;;;;6.46;85.59;101525.22;5036657;28;45340;-75
2021/11/15 07:13:31;;;;;;;;;34.25;29.00;;;;;6.22;85.65;101482.69;5035264;28;45449;-72
2021/11/15 07:15:57;;;;;;;;;41.00;33.75;;;;;6.60;84.95;101539.94;5038317;28;45269;-71
2021/11/15 07:18:23;;;;;;;;;39.50;34.50;;;;;6.65;85.38;101533.75;5046594;28;45292;-68
2021/11/15 07:20:48;;;;;;;;;38.50;33.00;;;;;6.64;85.13;101532.03;5040153;28;45279;-75
2021/11/15 07:23:14;;;;;;;;;38.00;34.50;;;;;6.70;83.95;101537.19;5033963;28;45355;-69
2021/11/15 07:25:40;;;;;;;;;33.75;31.75;;;;;6.73;83.87;101538.94;5035693;28;45358;-66
2021/11/15 07:28:06;;;;;;;;;40.75;32.00;;;;;6.76;83.91;101530.19;5037712;28;45475;-74
2021/11/15 07:30:32;;;;;;;;;36.75;33.00;;;;;6.76;83.74;101538.03;5043065;28;45970;-72
2021/11/15 07:32:58;;;;;;;;;39.75;33.50;;;;;6.72;83.98;101543.28;5038001;28;45348;-72
2021/11/15 07:35:23;;;;;;;;;38.75;30.25;;;;;6.66;84.53;101530.25;5035843;28;45303;-72
2021/11/15 07:37:49;;;;;;;;;36.25;27.50;;;;;6.63;84.43;101532.06;5035262;28;45949;-77
2021/11/15 07:40:17;;;;;;;;;44.25;34.00;;;;;6.70;84.12;101549.44;5066871;27;45735;-74
2021/11/15 07:42:42;;;;;;;;;41.50;33.00;;;;;6.72;84.24;101543.28;5034350;28;45312;-66
2021/11/15 07:45:09;;;;;;;;;46.00;34.75;;;;;6.77;83.74;101543.25;5034330;28;45556;-64
2021/11/15 07:47:35;;;;;;;;;40.00;33.50;;;;;6.83;84.21;101553.66;5034766;28;45351;-64
2021/11/15 07:50:04;;;;;;;;;40.75;33.50;;;;;6.87;83.70;101555.38;5034699;28;45345;-79
2021/11/15 07:52:31;;;;;;;;;40.00;35.00;;;;;6.90;83.75;101558.84;5033726;28;45250;-65
2021/11/15 07:54:57;;;;;;;;;39.75;32.75;;;;;6.95;83.93;101563.16;5033310;28;45258;-66
2021/11/15 07:57:22;;;;;;;;;51.25;38.50;;;;;6.97;83.98;101566.63;5035228;28;45313;-70
2021/11/15 07:59:48;;;;;;;;;44.75;34.75;;;;;6.96;83.54;101564.00;5035298;28;45305;-66
2021/11/15 08:02:13;;;;;;;;;38.00;33.75;;;;;7.01;83.87;101565.72;5067420;28;45423;-66
2021/11/15 08:04:39;;;;;;;;;41.75;35.00;;;;;7.06;83.86;101557.81;5037373;28;45388;-66
2021/11/15 08:07:05;;;;;;;;;40.25;36.50;;;;;7.07;83.18;101570.00;5035804;28;45317;-71
2021/11/15 08:09:30;;;;;;;;;47.25;35.25;;;;;7.11;83.09;101571.72;5036022;28;45384;-74
2021/11/15 08:12:02;;;;;;;;;42.00;36.25;;;;;7.13;83.27;101575.19;5035130;28;45214;-73
2021/11/15 08:14:28;;;;;;;;;35.75;30.75;;;;;7.20;83.23;101577.72;5065987;27;45617;-78
2021/11/15 08:16:54;;;;;;;;;43.00;34.00;;;;;7.23;83.67;101573.34;5035825;28;45576;-77
2021/11/15 08:19:19;;;;;;;;;45.00;34.75;;;;;7.24;83.06;101574.19;5035451;28;45338;-72
2021/11/15 08:21:47;;;;;;;;;50.50;36.75;;;;;7.26;84.05;101572.44;5035257;28;45317;-66
2021/11/15 08:24:38;;;;;;;;;38.75;34.25;;;;;7.36;83.68;101574.06;5035507;28;45315;-71
2021/11/15 08:27:05;;;;;;;;;39.00;31.75;;;;;7.34;83.02;101572.38;5034350;28;46162;-68
2021/11/15 08:29:33;;;;;;;;;44.50;35.75;;;;;7.36;83.10;101576.69;5033496;28;45321;-70
2021/11/15 08:32:06;;;;;;;;;42.50;34.00;;;;;7.33;83.71;101578.50;5034528;28;45468;-70
2021/11/15 08:34:32;;;;;;;;;46.50;34.25;;;;;7.29;82.31;101578.53;5034538;28;45350;-69
2021/11/15 08:36:58;;;;;;;;;45.25;35.75;;;;;7.20;82.74;101570.75;5033917;28;45484;-73
2021/11/15 08:39:26;;;;;;;;;46.50;33.75;;;;;7.29;82.83;101572.41;5032117;28;45291;-72
2021/11/15 08:42:03;;;;;;;;;48.50;35.50;;;;;7.34;82.87;101580.22;5037701;28;45327;-73
2021/11/15 08:44:32;;;;;;;;;42.75;33.50;;;;;7.31;82.84;101568.03;5031265;28;45263;-73
2021/11/15 08:46:58;;;;;;;;;46.75;35.50;;;;;7.37;83.57;101564.47;5015068;28;47197;-72
2021/11/15 08:49:26;;;;;;;;;46.75;36.50;;;;;7.46;83.27;101564.38;5014667;28;45514;-72
2021/11/15 08:51:53;;;;;;;;;47.00;35.50;;;;;7.64;83.23;101573.78;5013308;28;45529;-72
2021/11/15 08:54:20;;;;;;;;;38.75;34.00;;;;;7.69;82.21;101569.34;5014292;28;45431;-76
2021/11/15 08:56:49;;;;;;;;;52.25;37.25;;;;;7.75;82.45;101569.28;5015260;28;46763;-74
2021/11/15 08:59:15;;;;;;;;;48.25;35.25;;;;;7.82;82.26;101574.44;5011847;28;45350;-69
2021/11/15 09:01:41;;;;;;;;;41.75;34.75;;;;;7.73;82.22;101549.22;5011261;28;45738;-75
2021/11/15 09:04:08;;;;;;;;;47.25;36.00;;;;;7.88;82.50;101574.34;5013184;28;45549;-73
2021/11/15 09:06:37;;;;;;;;;42.75;34.75;;;;;7.85;82.14;101570.00;5013342;28;45945;-70
2021/11/15 09:09:05;;;;;;;;;47.75;33.25;;;;;7.86;81.62;101569.13;5013046;28;45289;-71
2021/11/15 09:11:30;;;;;;;;;49.00;36.25;;;;;7.90;82.30;101564.72;5013996;28;45445;-71
2021/11/15 09:13:57;;;;;;;;;49.75;39.00;;;;;7.94;81.88;101562.91;5014450;28;45362;-73
2021/11/15 09:16:23;;;;;;;;;44.75;37.50;;;;;7.93;81.72;101562.06;5012680;28;46128;-71
2021/11/15 09:18:48;;;;;;;;;50.25;39.00;;;;;7.93;81.73;101567.31;5012147;28;45404;-72
2021/11/15 09:21:16;;;;;;;;;46.75;37.00;;;;;7.91;81.49;101558.59;5014861;28;45416;-71
2021/11/15 09:23:44;;;;;;;;;51.50;39.00;;;;;7.90;81.71;101565.56;5014902;27;45254;-72
2021/11/15 09:26:12;;;;;;;;;51.25;37.50;;;;;7.87;81.80;101562.16;5014620;28;45381;-70
2021/11/15 09:28:38;;;;;;;;;53.25;42.00;;;;;7.83;82.13;101547.34;5013903;28;45360;-72
2021/11/15 09:31:04;;;;;;;;;46.00;37.00;;;;;7.98;81.76;101560.25;5016142;28;45441;-69
2021/11/15 09:33:30;;;;;;;;;50.50;39.50;;;;;8.02;81.73;101546.22;5016436;28;45381;-69
2021/11/15 09:35:56;;;;;;;;;47.00;36.75;;;;;8.09;81.53;101554.88;5014476;28;46151;-72
2021/11/15 09:38:23;;;;;;;;;46.75;35.00;;;;;8.07;80.66;101553.13;5015056;28;45248;-69
2021/11/15 09:40:56;;;;;;;;;51.25;39.75;;;;;8.03;81.40;101540.09;5017681;28;45392;-66
2021/11/15 09:43:24;;;;;;;;;40.00;33.50;;;;;8.14;81.51;101554.78;5021760;28;45287;-70
2021/11/15 09:45:50;;;;;;;;;45.25;37.25;;;;;8.14;80.66;101552.16;5013495;28;48440;-72
2021/11/15 09:48:16;;;;;;;;;50.25;37.50;;;;;8.19;81.33;101563.44;5012951;28;45439;-71
2021/11/15 09:50:41;;;;;;;;;41.25;31.75;;;;;8.15;80.75;101561.75;5012934;28;45337;-72
2021/11/15 09:53:08;;;;;;;;;49.75;36.75;;;;;8.17;80.63;101563.50;5012715;28;45608;-69
2021/11/15 09:55:33;;;;;;;;;42.00;31.00;;;;;8.27;81.29;101573.84;5012560;28;45468;-68
2021/11/15 09:57:59;;;;;;;;;46.75;37.50;;;;;8.24;81.18;101572.09;5011185;27;45939;-70
2021/11/15 10:00:27;;;;;;;;;48.50;36.50;;;;;8.31;80.13;101586.00;5013030;28;45305;-69
2021/11/15 10:02:53;;;;;;;;;45.50;35.50;;;;;8.31;80.62;101579.00;5013647;28;45354;-66
2021/11/15 10:05:20;;;;;;;;;47.25;36.50;;;;;8.28;80.72;101592.16;5019136;28;46065;-69
2021/11/15 10:07:49;;;;;;;;;46.75;37.00;;;;;8.16;80.24;101576.59;5024596;28;45496;-72
2021/11/15 10:10:55;;;;;;;;;48.25;37.75;;;;;8.17;80.52;101581.84;5016823;27;45506;-69
2021/11/15 10:13:30;;;;;;;;;42.00;34.25;;;;;8.12;80.83;101559.19;5013501;28;45431;-71
2021/11/15 10:16:11;;;;;;;;;49.25;36.25;;;;;8.24;81.15;101566.88;5012368;28;45339;-70
2021/11/15 10:18:53;;;;;;;;;46.00;35.75;;;;;8.23;80.57;101569.53;5013865;28;45341;-69
2021/11/15 10:21:50;;;;;;;;;42.25;34.00;;;;;8.22;80.58;101571.25;5015510;27;45213;-66
2021/11/15 10:24:31;;;;;;;;;47.00;37.00;;;;;8.24;80.44;101571.25;4998488;28;45400;-70
2021/11/15 10:27:16;;;;;;;;;46.50;32.75;;;;;8.21;80.67;101566.91;5018522;28;46978;-72
2021/11/15 10:29:45;;;;;;;;;47.50;36.00;;;;;8.23;80.77;101570.38;5016518;28;45276;-73
2021/11/15 10:32:16;;;;;;;;;42.50;35.00;;;;;8.24;81.02;101573.88;5019929;28;45338;-71
2021/11/15 10:34:42;;;;;;;;;46.75;36.50;;;;;8.23;80.90;101575.63;5013805;28;45386;-71
2021/11/15 10:37:14;;;;;;;;;43.00;35.25;;;;;8.28;81.21;101578.19;5012949;28;45427;-72
2021/11/15 10:39:39;;;;;;;;;43.25;34.00;;;;;8.26;81.17;101574.72;5019485;28;45378;-70
2021/11/15 10:42:11;;;;;;;;;46.50;35.50;;;;;8.22;81.04;101563.41;5021324;28;45405;-72
2021/11/15 10:44:47;;;;;;;;;36.25;34.00;;;;;8.30;81.31;101571.16;5019433;28;45798;-68
2021/11/15 10:47:13;;;;;;;;;26.25;22.75;;;;;8.34;80.69;101565.84;5016568;28;45620;-67
2021/11/15 10:49:41;;;;;;;;;45.25;33.25;;;;;8.36;80.70;101560.59;5015484;28;45425;-68
2021/11/15 10:52:11;;;;;;;;;50.50;37.25;;;;;8.31;80.73;101565.88;5015395;28;45273;-67
2021/11/15 10:54:51;;;;;;;;;49.00;35.00;;;;;8.27;80.71;101560.72;5014670;28;45372;-68
2021/11/15 10:57:29;;;;;;;;;47.25;36.50;;;;;8.26;80.77;101562.47;5015843;28;46368;-69
2021/11/15 11:00:07;;;;;;;;;48.00;34.00;;;;;8.31;80.64;101563.25;5015657;28;45251;-70
2021/11/15 11:02:37;;;;;;;;;47.75;36.00;;;;;8.25;80.97;101552.88;5017598;28;45448;-68
2021/11/15 11:05:24;;;;;;;;;37.50;32.00;;;;;8.23;80.87;101554.66;5017566;27;45293;-68
2021/11/15 11:08:18;;;;;;;;;47.00;40.00;;;;;8.24;81.01;101548.53;5016381;28;45320;-74
2021/11/15 11:11:01;;;;;;;;;55.25;41.25;;;;;8.27;81.14;101553.72;5015789;28;45302;-72
2021/11/15 11:13:44;;;;;;;;;51.50;37.00;;;;;8.34;80.69;101549.25;5020159;28;45205;-71
2021/11/15 11:16:10;;;;;;;;;48.75;37.25;;;;;8.30;81.05;101539.72;5017778;28;45447;-68
2021/11/15 11:18:39;;;;;;;;;52.00;41.00;;;;;8.40;80.69;101562.28;5015383;28;45505;-73